createdAt,value
2018-05-18T00:01:48.350Z,13.10
2018-05-18T00:04:15.298Z,14.63
2018-05-18T00:06:42.322Z,11.37
2018-05-18T00:09:09.259Z,12.23
2018-05-18T00:11:35.487Z,13.47
2018-05-18T00:14:01.662Z,11.97
2018-05-18T00:16:27.922Z,9.33
2018-05-18T00:18:54.117Z,9.60
2018-05-18T00:21:20.293Z,7.10
2018-05-18T00:23:46.494Z,7.87
2018-05-18T00:26:12.666Z,10.10
2018-05-18T00:28:38.930Z,13.53
2018-05-18T00:31:05.844Z,8.40
2018-05-18T00:33:32.779Z,8.10
2018-05-18T00:35:59.740Z,7.67
2018-05-18T00:38:26.758Z,6.97
2018-05-18T00:40:52.935Z,7.80
2018-05-18T00:43:19.122Z,7.03
2018-05-18T00:45:45.306Z,7.10
2018-05-18T00:48:11.464Z,6.73
2018-05-18T00:50:37.659Z,9.00
2018-05-18T00:53:03.849Z,9.37
2018-05-18T00:55:39.676Z,10.40
2018-05-18T00:58:05.871Z,8.90
2018-05-18T01:00:32.060Z,7.60
2018-05-18T01:02:58.270Z,7.67
2018-05-18T01:05:25.228Z,8.87
2018-05-18T01:07:52.258Z,7.83
2018-05-18T01:10:18.444Z,6.63
2018-05-18T01:12:44.633Z,7.93
2018-05-18T01:15:10.890Z,6.83
2018-05-18T01:17:37.077Z,9.63
2018-05-18T01:20:04.010Z,7.37
2018-05-18T01:22:30.959Z,12.90
2018-05-18T01:24:58.010Z,12.60
2018-05-18T01:27:24.951Z,12.37
2018-05-18T01:29:51.895Z,11.03
2018-05-18T01:32:18.889Z,11.37
2018-05-18T01:34:45.085Z,10.10
2018-05-18T01:37:11.273Z,7.27
2018-05-18T01:39:37.480Z,6.83
2018-05-18T01:42:03.716Z,5.90
2018-05-18T01:44:29.948Z,5.17
2018-05-18T01:46:56.166Z,5.03
2018-05-18T01:49:22.349Z,4.53
2018-05-18T01:51:48.505Z,5.27
2018-05-18T01:54:14.718Z,6.17
2018-05-18T01:56:41.001Z,8.43
2018-05-18T01:59:07.197Z,6.57
2018-05-18T02:01:33.426Z,7.10
2018-05-18T02:03:59.610Z,6.83
2018-05-18T02:06:25.838Z,7.40
2018-05-18T02:08:52.076Z,12.13
2018-05-18T02:11:18.260Z,10.97
2018-05-18T02:13:44.425Z,11.77
2018-05-18T02:16:10.635Z,10.87
2018-05-18T02:18:37.562Z,11.50
2018-05-18T02:21:04.558Z,10.57
2018-05-18T02:23:30.728Z,7.97
2018-05-18T02:25:56.896Z,7.53
2018-05-18T02:28:23.098Z,6.77
2018-05-18T02:30:50.042Z,6.23
2018-05-18T02:33:16.963Z,5.57
2018-05-18T02:35:43.142Z,5.37
2018-05-18T02:38:09.351Z,5.13
2018-05-18T02:40:36.292Z,5.33
2018-05-18T02:43:03.209Z,4.50
2018-05-18T02:45:30.872Z,4.37
2018-05-18T02:47:57.060Z,4.63
2018-05-18T02:50:23.268Z,4.73
2018-05-18T02:52:49.442Z,5.07
2018-05-18T02:55:15.735Z,5.07
2018-05-18T02:57:41.955Z,5.87
2018-05-18T03:00:08.141Z,7.90
2018-05-18T03:02:34.352Z,9.20
2018-05-18T03:05:00.545Z,11.93
2018-05-18T03:07:26.785Z,12.17
2018-05-18T03:09:52.974Z,10.83
2018-05-18T03:12:20.002Z,11.40
2018-05-18T03:14:46.981Z,9.90
2018-05-18T03:17:13.165Z,10.53
2018-05-18T03:19:40.103Z,11.27
2018-05-18T03:22:06.434Z,11.10
2018-05-18T03:24:32.626Z,11.57
2018-05-18T03:26:58.861Z,7.80
2018-05-18T03:29:25.032Z,5.97
2018-05-18T03:31:51.993Z,5.70
2018-05-18T03:34:19.017Z,5.43
2018-05-18T03:36:45.959Z,4.87
2018-05-18T03:39:12.191Z,4.50
2018-05-18T03:41:39.138Z,4.00
2018-05-18T03:44:06.079Z,4.03
2018-05-18T03:46:32.259Z,5.33
2018-05-18T03:48:58.454Z,5.40
2018-05-18T03:51:24.643Z,5.47
2018-05-18T03:53:50.834Z,6.30
2018-05-18T03:56:17.034Z,7.20
2018-05-18T03:58:43.240Z,7.10
2018-05-18T04:04:14.537Z,6.20
2018-05-18T04:06:53.039Z,4.43
2018-05-18T04:09:19.957Z,5.30
2018-05-18T04:11:46.159Z,5.03
2018-05-18T04:14:12.366Z,5.60
2018-05-18T04:16:38.582Z,6.43
2018-05-18T04:19:04.873Z,6.50
2018-05-18T04:21:31.068Z,8.00
2018-05-18T04:23:57.253Z,6.00
2018-05-18T04:26:23.460Z,5.57
2018-05-18T04:28:50.359Z,4.87
2018-05-18T04:31:16.558Z,5.93
2018-05-18T04:33:42.770Z,4.57
2018-05-18T04:36:09.728Z,4.63
2018-05-18T04:38:35.955Z,4.40
2018-05-18T04:41:02.143Z,5.70
2018-05-18T04:43:28.334Z,5.73
2018-05-18T04:45:54.590Z,4.70
2018-05-18T04:48:20.793Z,4.47
2018-05-18T04:50:46.969Z,5.47
2018-05-18T04:53:13.917Z,6.43
2018-05-18T04:55:40.833Z,6.80
2018-05-18T04:58:07.026Z,5.97
2018-05-18T05:00:33.257Z,5.53
2018-05-18T05:02:59.454Z,5.43
2018-05-18T05:05:25.632Z,4.40
2018-05-18T05:07:51.802Z,7.17
2018-05-18T05:10:18.017Z,6.43
2018-05-18T05:12:45.016Z,5.33
2018-05-18T05:15:11.226Z,5.33
2018-05-18T05:17:37.445Z,5.50
2018-05-18T05:20:03.714Z,5.23
2018-05-18T05:22:29.918Z,5.27
2018-05-18T05:24:56.114Z,5.67
2018-05-18T05:27:23.081Z,5.37
2018-05-18T05:29:49.265Z,6.53
2018-05-18T05:32:16.197Z,4.23
2018-05-18T05:34:43.847Z,4.13
2018-05-18T05:37:10.061Z,5.20
2018-05-18T05:39:36.239Z,5.00
2018-05-18T05:42:03.178Z,5.10
2018-05-18T05:44:30.110Z,4.17
2018-05-18T05:46:56.375Z,5.50
2018-05-18T05:49:22.558Z,5.23
2018-05-18T05:51:48.730Z,5.93
2018-05-18T05:54:14.941Z,5.43
2018-05-18T05:56:41.129Z,4.47
2018-05-18T05:59:07.338Z,4.33
2018-05-18T06:01:33.716Z,4.33
2018-05-18T06:03:59.910Z,4.73
2018-05-18T06:06:26.135Z,4.87
2018-05-18T06:08:53.063Z,4.73
2018-05-18T06:11:19.224Z,7.10
2018-05-18T06:13:45.418Z,7.07
2018-05-18T06:16:11.601Z,6.03
2018-05-18T06:18:37.794Z,5.70
2018-05-18T06:21:04.001Z,5.50
2018-05-18T06:23:30.190Z,5.70
2018-05-18T06:25:56.395Z,6.10
2018-05-18T06:28:23.313Z,5.77
2018-05-18T06:30:49.522Z,8.53
2018-05-18T06:33:15.760Z,9.03
2018-05-18T06:35:42.009Z,9.63
2018-05-18T06:38:08.215Z,9.43
2018-05-18T06:40:34.538Z,8.97
2018-05-18T06:43:00.728Z,10.40
2018-05-18T06:45:26.962Z,9.00
2018-05-18T06:47:53.130Z,8.83
2018-05-18T06:50:19.451Z,10.43
2018-05-18T06:52:45.644Z,7.60
2018-05-18T06:55:11.833Z,7.77
2018-05-18T06:57:38.055Z,9.03
2018-05-18T07:00:04.233Z,9.37
2018-05-18T07:02:30.441Z,9.30
2018-05-18T07:04:56.666Z,10.50
2018-05-18T07:07:22.898Z,7.10
2018-05-18T07:09:49.091Z,7.93
2018-05-18T07:12:15.314Z,7.30
2018-05-18T07:14:41.764Z,8.17
2018-05-18T07:17:08.726Z,9.30
2018-05-18T07:19:34.945Z,7.80
2018-05-18T07:22:01.934Z,8.97
2018-05-18T07:24:28.119Z,10.53
2018-05-18T07:26:54.310Z,9.03
2018-05-18T07:29:20.519Z,8.63
2018-05-18T07:31:46.729Z,9.47
2018-05-18T07:34:12.943Z,7.63
2018-05-18T07:36:39.130Z,7.63
2018-05-18T07:39:05.577Z,7.20
2018-05-18T07:41:32.555Z,6.57
2018-05-18T07:43:58.825Z,6.87
2018-05-18T07:46:25.729Z,6.30
2018-05-18T07:48:51.941Z,5.87
2018-05-18T07:51:18.161Z,5.73
2018-05-18T07:53:44.357Z,5.17
2018-05-18T07:56:10.621Z,5.97
2018-05-18T07:58:36.839Z,6.63
2018-05-18T08:01:03.022Z,7.20
2018-05-18T08:03:29.213Z,6.60
2018-05-18T08:05:56.175Z,7.13
2018-05-18T08:08:22.349Z,7.53
2018-05-18T08:10:48.560Z,8.27
2018-05-18T08:13:14.809Z,7.50
2018-05-18T08:15:41.717Z,7.17
2018-05-18T08:18:07.925Z,7.93
2018-05-18T08:20:34.115Z,5.70
2018-05-18T08:23:01.054Z,5.83
2018-05-18T08:25:28.062Z,6.23
2018-05-18T08:27:54.237Z,5.43
2018-05-18T08:30:20.461Z,4.40
2018-05-18T08:32:47.381Z,5.90
2018-05-18T08:35:13.579Z,7.20
2018-05-18T08:37:39.781Z,6.03
2018-05-18T08:40:06.031Z,5.13
2018-05-18T08:42:32.232Z,4.80
2018-05-18T08:44:58.477Z,6.07
2018-05-18T08:47:24.675Z,5.67
2018-05-18T08:49:50.862Z,5.63
2018-05-18T08:52:17.058Z,6.37
2018-05-18T08:54:43.266Z,6.77
2018-05-18T08:57:09.475Z,7.47
2018-05-18T08:59:36.394Z,7.00
2018-05-18T09:02:02.602Z,5.90
2018-05-18T09:04:28.883Z,6.23
2018-05-18T09:06:55.086Z,4.97
2018-05-18T09:09:22.058Z,5.27
2018-05-18T09:11:48.307Z,6.03
2018-05-18T09:14:14.515Z,6.20
2018-05-18T09:16:40.769Z,6.07
2018-05-18T09:19:07.010Z,6.47
2018-05-18T09:21:33.193Z,6.10
2018-05-18T09:23:59.414Z,6.07
2018-05-18T09:26:26.373Z,6.10
2018-05-18T09:28:52.555Z,4.87
2018-05-18T09:31:18.771Z,5.23
2018-05-18T09:33:44.978Z,5.53
2018-05-18T09:36:11.273Z,5.27
2018-05-18T09:38:38.207Z,5.30
2018-05-18T09:41:04.399Z,5.37
2018-05-18T09:43:30.596Z,6.03
2018-05-18T09:45:56.802Z,5.20
2018-05-18T09:48:23.033Z,5.97
2018-05-18T09:50:49.311Z,5.30
2018-05-18T09:53:15.647Z,5.47
2018-05-18T09:55:41.862Z,6.17
2018-05-18T09:58:08.080Z,6.77
2018-05-18T10:00:34.367Z,5.93
2018-05-18T10:03:00.522Z,6.17
2018-05-18T10:05:26.729Z,5.97
2018-05-18T10:07:52.952Z,5.80
2018-05-18T10:10:19.305Z,7.03
2018-05-18T10:12:45.569Z,6.47
2018-05-18T10:15:11.807Z,6.10
2018-05-18T10:17:38.026Z,6.13
2018-05-18T10:20:04.251Z,4.83
2018-05-18T10:22:31.186Z,4.90
2018-05-18T10:24:57.404Z,5.23
2018-05-18T10:27:23.594Z,5.20
2018-05-18T10:29:49.814Z,5.13
2018-05-18T10:32:16.733Z,5.23
2018-05-18T10:34:42.955Z,5.00
2018-05-18T10:37:09.148Z,5.53
2018-05-18T10:39:35.402Z,5.53
2018-05-18T10:42:01.600Z,6.27
2018-05-18T10:44:27.790Z,6.47
2018-05-18T10:46:54.012Z,4.83
2018-05-18T10:49:21.047Z,5.40
2018-05-18T10:51:47.242Z,5.80
2018-05-18T10:54:13.458Z,5.27
2018-05-18T10:56:39.656Z,5.40
2018-05-18T10:59:05.841Z,5.80
2018-05-18T11:01:32.058Z,5.20
2018-05-18T11:03:59.037Z,6.33
2018-05-18T11:06:25.976Z,6.20
2018-05-18T11:08:52.893Z,5.00
2018-05-18T11:11:19.090Z,5.63
2018-05-18T11:13:45.326Z,5.40
2018-05-18T11:16:11.564Z,4.77
2018-05-18T11:18:37.762Z,5.43
2018-05-18T11:21:04.148Z,5.93
2018-05-18T11:23:30.361Z,4.90
2018-05-18T11:25:56.554Z,5.47
2018-05-18T11:28:22.782Z,5.77
2018-05-18T11:30:48.982Z,5.97
2018-05-18T11:33:16.162Z,5.27
2018-05-18T11:35:42.186Z,5.17
2018-05-18T11:38:08.387Z,4.63
2018-05-18T11:40:35.374Z,5.33
2018-05-18T11:43:01.582Z,5.57
2018-05-18T11:45:27.769Z,7.97
2018-05-18T11:47:54.750Z,6.17
2018-05-18T11:50:20.946Z,7.10
2018-05-18T11:52:47.934Z,5.70
2018-05-18T11:55:14.118Z,5.43
2018-05-18T11:57:41.045Z,5.53
2018-05-18T12:00:07.645Z,6.03
2018-05-18T12:02:33.833Z,5.60
2018-05-18T12:05:00.786Z,5.70
2018-05-18T12:07:26.979Z,6.23
2018-05-18T12:09:54.734Z,6.50
2018-05-18T12:12:38.274Z,6.20
2018-05-18T12:15:04.512Z,6.60
2018-05-18T12:17:31.486Z,5.07
2018-05-18T12:19:57.729Z,5.30
2018-05-18T12:22:23.979Z,5.93
2018-05-18T12:24:50.198Z,4.77
2018-05-18T12:27:16.409Z,5.70
2018-05-18T12:29:42.608Z,5.93
2018-05-18T12:32:09.600Z,6.13
2018-05-18T12:34:35.866Z,4.80
2018-05-18T12:37:02.955Z,4.57
2018-05-18T12:39:29.158Z,5.90
2018-05-18T12:41:55.391Z,5.93
2018-05-18T12:44:21.701Z,4.63
2018-05-18T12:46:47.892Z,5.20
2018-05-18T12:49:14.254Z,5.03
2018-05-18T12:51:40.496Z,5.30
2018-05-18T12:54:07.471Z,5.20
2018-05-18T12:56:33.703Z,5.43
2018-05-18T12:58:59.890Z,5.20
2018-05-18T13:01:26.834Z,5.60
2018-05-18T13:03:53.815Z,6.40
2018-05-18T13:06:20.005Z,5.10
2018-05-18T13:08:46.985Z,5.60
2018-05-18T13:11:13.310Z,5.17
2018-05-18T13:13:39.595Z,9.63
2018-05-18T13:16:05.843Z,6.83
2018-05-18T13:18:32.781Z,7.10
2018-05-18T13:20:59.102Z,6.40
2018-05-18T13:23:25.299Z,5.50
2018-05-18T13:25:51.528Z,5.33
2018-05-18T13:28:17.722Z,5.40
2018-05-18T13:30:44.002Z,5.93
2018-05-18T13:33:10.268Z,6.80
2018-05-18T13:35:36.489Z,6.07
2018-05-18T13:38:03.452Z,5.60
2018-05-18T13:40:29.699Z,6.33
2018-05-18T13:42:55.931Z,6.33
2018-05-18T13:45:22.109Z,7.10
2018-05-18T13:47:49.045Z,6.17
2018-05-18T13:50:15.226Z,7.00
2018-05-18T13:52:41.432Z,6.73
2018-05-18T13:55:07.667Z,6.23
2018-05-18T13:57:33.841Z,5.90
2018-05-18T14:00:00.046Z,5.43
2018-05-18T14:02:26.250Z,6.57
2018-05-18T14:04:52.461Z,6.27
2018-05-18T14:07:18.679Z,6.00
2018-05-18T14:09:46.230Z,6.80
2018-05-18T14:12:13.167Z,5.93
2018-05-18T14:14:40.157Z,6.43
2018-05-18T14:17:06.420Z,6.07
2018-05-18T14:19:32.693Z,5.77
2018-05-18T14:21:58.925Z,5.60
2018-05-18T14:24:25.112Z,5.10
2018-05-18T14:26:51.369Z,6.87
2018-05-18T14:29:18.328Z,6.77
2018-05-18T14:31:44.755Z,5.73
2018-05-18T14:34:11.013Z,6.20
2018-05-18T14:36:37.224Z,6.00
2018-05-18T14:39:04.560Z,6.00
2018-05-18T14:41:30.769Z,5.90
2018-05-18T14:43:57.815Z,4.97
2018-05-18T14:46:23.979Z,6.07
2018-05-18T14:48:50.222Z,5.50
2018-05-18T14:51:16.483Z,6.30
2018-05-18T14:53:43.363Z,5.73
2018-05-18T14:56:09.607Z,6.30
2018-05-18T14:58:35.863Z,6.07
2018-05-18T15:01:02.066Z,5.87
2018-05-18T15:03:28.376Z,5.17
2018-05-18T15:05:54.593Z,5.20
2018-05-18T15:08:21.559Z,5.67
2018-05-18T15:10:47.847Z,6.30
2018-05-18T15:13:14.034Z,6.43
2018-05-18T15:15:40.270Z,5.97
2018-05-18T15:18:06.491Z,6.53
2018-05-18T15:20:32.713Z,6.30
2018-05-18T15:22:58.913Z,5.87
2018-05-18T15:25:25.133Z,5.87
2018-05-18T15:27:52.084Z,6.97
2018-05-18T15:30:18.333Z,4.93
2018-05-18T15:32:44.544Z,5.30
2018-05-18T15:35:10.782Z,6.00
2018-05-18T15:37:36.983Z,5.00
2018-05-18T15:40:03.930Z,6.50
2018-05-18T15:42:30.922Z,6.17
2018-05-18T15:44:57.130Z,6.07
2018-05-18T15:47:23.354Z,6.63
2018-05-18T15:49:49.691Z,6.77
2018-05-18T15:52:15.972Z,5.57
2018-05-18T15:54:42.899Z,6.03
2018-05-18T15:57:09.190Z,5.20
2018-05-18T15:59:35.408Z,6.57
2018-05-18T16:02:01.631Z,5.10
2018-05-18T16:04:27.969Z,6.40
2018-05-18T16:06:54.868Z,5.90
2018-05-18T16:09:21.833Z,6.17
2018-05-18T16:11:48.111Z,5.67
2018-05-18T16:14:14.350Z,5.43
2018-05-18T16:16:40.579Z,5.67
2018-05-18T16:19:06.879Z,5.67
2018-05-18T16:21:33.074Z,5.17
2018-05-18T16:24:00.035Z,5.13
2018-05-18T16:26:26.247Z,5.80
2018-05-18T16:28:52.496Z,4.97
2018-05-18T16:31:18.699Z,4.67
2018-05-18T16:33:45.674Z,5.90
2018-05-18T16:36:11.871Z,5.40
2018-05-18T16:38:38.813Z,5.40
2018-05-18T16:41:05.866Z,5.07
2018-05-18T16:43:32.835Z,5.40
2018-05-18T16:45:59.024Z,5.07
2018-05-18T16:48:25.977Z,5.00
2018-05-18T16:50:52.935Z,5.70
2018-05-18T16:53:19.161Z,4.83
2018-05-18T16:55:46.217Z,5.87
2018-05-18T16:58:12.427Z,5.10
2018-05-18T17:00:38.624Z,5.43
2018-05-18T17:03:04.859Z,5.07
2018-05-18T17:05:31.085Z,4.90
2018-05-18T17:07:58.074Z,4.50
2018-05-18T17:10:24.303Z,5.43
2018-05-18T17:12:50.496Z,4.53
2018-05-18T17:15:17.450Z,6.03
2018-05-18T17:17:44.421Z,4.73
2018-05-18T17:20:10.635Z,6.10
2018-05-18T17:22:36.868Z,4.70
2018-05-18T17:25:03.213Z,5.80
2018-05-18T17:27:29.432Z,4.70
2018-05-18T17:29:55.666Z,5.70
2018-05-18T17:32:21.980Z,5.43
2018-05-18T17:34:48.281Z,5.23
2018-05-18T17:37:14.512Z,5.40
2018-05-18T17:39:41.542Z,4.93
2018-05-18T17:42:07.763Z,4.77
2018-05-18T17:44:34.060Z,5.10
2018-05-18T17:47:00.359Z,4.80
2018-05-18T17:49:27.296Z,4.00
2018-05-18T17:51:54.289Z,5.73
2018-05-18T17:54:25.406Z,5.17
2018-05-18T17:56:51.601Z,4.13
2018-05-18T17:59:17.860Z,5.30
2018-05-18T18:01:44.101Z,4.97
2018-05-18T18:04:11.111Z,5.30
2018-05-18T18:06:37.311Z,4.97
2018-05-18T18:09:04.562Z,5.30
2018-05-18T18:11:30.792Z,4.90
2018-05-18T18:13:57.780Z,4.53
2018-05-18T18:16:24.030Z,4.60
2018-05-18T18:18:50.248Z,5.77
2018-05-18T18:21:16.502Z,4.80
2018-05-18T18:23:42.684Z,4.63
2018-05-18T18:26:09.646Z,4.47
2018-05-18T18:28:35.879Z,5.37
2018-05-18T18:31:02.170Z,5.70
2018-05-18T18:33:29.148Z,5.43
2018-05-18T18:35:55.403Z,5.07
2018-05-18T18:38:21.599Z,5.30
2018-05-18T18:40:47.898Z,4.90
2018-05-18T18:43:14.916Z,5.13
2018-05-18T18:45:41.109Z,5.30
2018-05-18T18:48:07.317Z,4.57
2018-05-18T18:50:33.503Z,4.73
2018-05-18T18:53:00.524Z,4.50
2018-05-18T18:55:26.854Z,3.90
2018-05-18T18:57:53.065Z,5.40
2018-05-18T19:00:19.285Z,5.00
2018-05-18T19:02:45.551Z,5.20
2018-05-18T19:05:12.927Z,4.17
2018-05-18T19:07:39.153Z,6.13
2018-05-18T19:10:05.396Z,4.50
2018-05-18T19:12:32.351Z,4.53
2018-05-18T19:14:59.343Z,4.20
2018-05-18T19:17:25.522Z,4.97
2018-05-18T19:19:52.662Z,5.30
2018-05-18T19:22:19.633Z,4.80
2018-05-18T19:24:45.876Z,4.77
2018-05-18T19:27:12.097Z,5.10
2018-05-18T19:29:38.367Z,4.80
2018-05-18T19:32:04.545Z,5.53
2018-05-18T19:34:30.855Z,4.97
2018-05-18T19:36:57.816Z,5.43
2018-05-18T19:39:24.107Z,4.00
2018-05-18T19:41:50.365Z,4.73
2018-05-18T19:44:17.315Z,3.80
2018-05-18T19:46:43.550Z,4.37
2018-05-18T19:49:09.828Z,4.67
2018-05-18T19:51:36.042Z,6.33
2018-05-18T19:54:02.242Z,5.13
2018-05-18T19:56:28.529Z,4.73
2018-05-18T19:58:54.773Z,5.10
2018-05-18T20:01:21.730Z,4.37
2018-05-18T20:03:47.994Z,4.00
2018-05-18T20:06:14.273Z,4.67
2018-05-18T20:08:41.317Z,4.17
2018-05-18T20:11:07.636Z,4.83
2018-05-18T20:13:33.850Z,4.40
2018-05-18T20:16:00.081Z,4.87
2018-05-18T20:18:27.363Z,4.00
2018-05-18T20:20:53.642Z,4.40
2018-05-18T20:23:19.888Z,4.40
2018-05-18T20:25:46.199Z,3.93
2018-05-18T20:28:12.466Z,4.20
2018-05-18T20:30:39.443Z,4.93
2018-05-18T20:33:05.663Z,4.70
2018-05-18T20:35:31.929Z,4.90
2018-05-18T20:37:58.159Z,4.33
2018-05-18T20:40:24.391Z,3.83
2018-05-18T20:42:50.683Z,4.23
2018-05-18T20:45:16.913Z,4.13
2018-05-18T20:47:43.171Z,4.90
2018-05-18T20:50:09.470Z,4.10
2018-05-18T20:52:35.716Z,3.83
2018-05-18T20:55:01.948Z,5.00
2018-05-18T20:57:28.155Z,4.10
2018-05-18T20:59:54.394Z,4.33
2018-05-18T21:02:20.620Z,4.60
2018-05-18T21:04:46.835Z,4.73
2018-05-18T21:07:16.834Z,4.60
2018-05-18T21:09:43.035Z,4.10
2018-05-18T21:12:09.259Z,5.73
2018-05-18T21:14:37.748Z,4.23
2018-05-18T21:17:04.719Z,4.63
2018-05-18T21:19:30.933Z,4.80
2018-05-18T21:21:57.892Z,4.47
2018-05-18T21:24:24.114Z,4.93
2018-05-18T21:26:50.363Z,4.77
2018-05-18T21:29:16.558Z,4.30
2018-05-18T21:31:43.653Z,4.80
2018-05-18T21:34:09.858Z,4.30
2018-05-18T21:36:36.073Z,4.83
2018-05-18T21:39:02.428Z,5.10
2018-05-18T21:41:28.680Z,5.47
2018-05-18T21:43:54.924Z,4.70
2018-05-18T21:46:22.606Z,4.47
2018-05-18T21:48:49.552Z,4.13
2018-05-18T21:51:16.524Z,4.80
2018-05-18T21:53:42.779Z,4.53
2018-05-18T21:56:08.997Z,4.60
2018-05-18T21:58:35.329Z,4.80
2018-05-18T22:01:01.487Z,5.50
2018-05-18T22:03:27.735Z,4.67
2018-05-18T22:05:54.729Z,5.43
2018-05-18T22:08:21.069Z,5.27
2018-05-18T22:10:47.304Z,5.17
2018-05-18T22:13:13.516Z,5.13
2018-05-18T22:15:39.747Z,4.53
2018-05-18T22:18:05.982Z,4.37
2018-05-18T22:20:32.283Z,4.87
2018-05-18T22:22:58.494Z,5.20
2018-05-18T22:25:24.745Z,5.50
2018-05-18T22:27:50.975Z,5.40
2018-05-18T22:30:17.205Z,5.50
2018-05-18T22:32:43.441Z,5.30
2018-05-18T22:35:09.669Z,4.50
2018-05-18T22:37:35.914Z,5.27
2018-05-18T22:40:02.884Z,6.03
2018-05-18T22:42:29.838Z,4.97
2018-05-18T22:44:56.126Z,5.77
2018-05-18T22:47:22.325Z,5.53
2018-05-18T22:49:48.583Z,4.60
2018-05-18T22:52:14.787Z,5.70
2018-05-18T22:54:41.016Z,5.60
2018-05-18T22:57:07.228Z,5.67
2018-05-18T22:59:33.451Z,6.30
2018-05-18T23:01:59.670Z,6.30
2018-05-18T23:04:25.905Z,6.03
2018-05-18T23:06:52.126Z,5.67
2018-05-18T23:09:18.339Z,6.27
2018-05-18T23:11:45.303Z,5.40
2018-05-18T23:14:11.516Z,6.00
2018-05-18T23:16:38.477Z,6.57
2018-05-18T23:19:04.702Z,5.73
2018-05-18T23:21:30.944Z,5.07
2018-05-18T23:23:57.169Z,5.67
2018-05-18T23:26:23.537Z,6.60
2018-05-18T23:28:49.762Z,6.23
2018-05-18T23:31:15.977Z,6.07
2018-05-18T23:33:42.185Z,6.03
2018-05-18T23:36:08.398Z,6.60
2018-05-18T23:38:34.661Z,6.60
2018-05-18T23:41:00.862Z,6.50
2018-05-18T23:43:27.090Z,6.40
2018-05-18T23:45:53.373Z,6.63
2018-05-18T23:48:19.610Z,7.23
2018-05-18T23:50:46.569Z,6.60
2018-05-18T23:53:12.760Z,6.23
2018-05-18T23:55:38.943Z,6.33
2018-05-18T23:58:05.167Z,7.10
